createdAt,value
2019-04-29T00:00:08.939Z,102506.12
2019-04-29T00:02:38.410Z,102504.05
2019-04-29T00:05:09.472Z,102502.64
2019-04-29T00:07:39.114Z,102501.36
2019-04-29T00:10:10.469Z,102499.17
2019-04-29T00:12:40.105Z,102503.66
2019-04-29T00:15:11.509Z,102504.94
2019-04-29T00:17:42.571Z,102515.09
2019-04-29T00:20:22.985Z,102509.03
2019-04-29T00:22:52.342Z,102510.06
2019-04-29T00:25:21.838Z,102511.34
2019-04-29T00:27:51.340Z,102515.56
2019-04-29T00:30:22.349Z,102513.66
2019-04-29T00:32:51.884Z,102514.05
2019-04-29T00:35:21.553Z,102516.09
2019-04-29T00:37:55.386Z,102522.25
2019-04-29T00:40:41.808Z,102518.00
2019-04-29T00:46:08.020Z,102522.55
2019-04-29T00:48:37.586Z,102518.45
2019-04-29T00:51:07.276Z,102522.93
2019-04-29T00:53:37.298Z,102522.81
2019-04-29T00:56:06.730Z,102528.73
2019-04-29T00:58:36.128Z,102519.36
2019-04-29T01:01:10.258Z,102522.94
2019-04-29T01:03:41.265Z,102529.66
2019-04-29T01:06:10.899Z,102526.30
2019-04-29T01:08:40.314Z,102529.77
2019-04-29T01:11:09.954Z,102533.88
2019-04-29T01:13:39.371Z,102528.08
2019-04-29T01:16:08.845Z,102528.49
2019-04-29T01:18:38.554Z,102532.22
2019-04-29T01:21:08.026Z,102534.51
2019-04-29T01:23:37.454Z,102536.70
2019-04-29T01:26:25.472Z,102538.52
2019-04-29T01:28:59.569Z,102537.48
2019-04-29T01:31:30.851Z,102532.05
2019-04-29T01:34:02.168Z,102535.53
2019-04-29T01:36:39.541Z,102534.49
2019-04-29T01:39:11.307Z,102535.91
2019-04-29T01:41:59.066Z,102546.86
2019-04-29T01:44:30.437Z,102538.77
2019-04-29T01:46:59.845Z,102540.92
2019-04-29T01:49:29.380Z,102534.49
2019-04-29T01:51:58.779Z,102539.75
2019-04-29T01:54:28.268Z,102540.65
2019-04-29T01:56:57.666Z,102544.49
2019-04-29T01:59:27.366Z,102547.84
2019-04-29T02:01:56.777Z,102547.97
2019-04-29T02:04:27.811Z,102547.19
2019-04-29T02:06:57.316Z,102554.89
2019-04-29T02:09:28.390Z,102550.91
2019-04-29T02:11:57.839Z,102551.54
2019-04-29T02:14:27.272Z,102555.27
2019-04-29T02:16:56.707Z,102552.31
2019-04-29T02:19:26.132Z,102558.23
2019-04-29T02:22:12.156Z,102559.76
2019-04-29T02:24:49.198Z,102556.78
2019-04-29T02:27:18.639Z,102559.61
2019-04-29T02:29:48.129Z,102561.13
2019-04-29T02:32:19.103Z,102557.88
2019-04-29T02:34:48.704Z,102562.77
2019-04-29T02:37:19.758Z,102558.92
2019-04-29T02:39:53.938Z,102558.68
2019-04-29T02:42:39.779Z,102560.08
2019-04-29T02:45:11.484Z,102559.05
2019-04-29T02:47:41.116Z,102554.03
2019-04-29T02:50:10.730Z,102552.24
2019-04-29T02:52:40.165Z,102555.08
2019-04-29T02:55:11.822Z,102555.58
2019-04-29T02:57:44.461Z,102553.17
2019-04-29T03:00:18.986Z,102553.55
2019-04-29T03:02:50.194Z,102549.45
2019-04-29T03:05:27.556Z,102546.34
2019-04-29T03:07:57.090Z,102545.35
2019-04-29T03:10:26.494Z,102543.27
2019-04-29T03:12:55.954Z,102539.91
2019-04-29T03:15:31.689Z,102536.57
2019-04-29T03:18:01.706Z,102538.95
2019-04-29T03:20:33.128Z,102541.24
2019-04-29T03:23:10.646Z,102538.28
2019-04-29T03:25:40.061Z,102535.32
2019-04-29T03:28:09.653Z,102536.84
2019-04-29T03:30:39.187Z,102539.00
2019-04-29T03:33:09.092Z,102537.48
2019-04-29T03:35:38.492Z,102549.44
2019-04-29T03:38:08.004Z,102549.14
2019-04-29T03:40:37.830Z,102544.44
2019-04-29T03:43:07.241Z,102541.33
2019-04-29T03:45:36.714Z,102541.76
2019-04-29T03:48:06.405Z,102540.62
2019-04-29T03:50:35.977Z,102550.09
2019-04-29T03:53:05.392Z,102551.80
2019-04-29T03:55:39.953Z,102557.34
2019-04-29T03:58:06.162Z,102553.29
2019-04-29T04:00:35.786Z,102554.57
2019-04-29T04:03:09.568Z,102553.94
2019-04-29T04:05:43.573Z,102556.37
2019-04-29T04:11:00.439Z,102557.08
2019-04-29T04:13:29.860Z,102561.98
2019-04-29T04:15:59.464Z,102553.02
2019-04-29T04:18:30.828Z,102559.09
2019-04-29T04:21:00.269Z,102554.95
2019-04-29T04:23:29.712Z,102558.05
2019-04-29T04:25:59.157Z,102565.48
2019-04-29T04:28:28.652Z,102567.03
2019-04-29T04:30:58.145Z,102576.77
2019-04-29T04:33:29.127Z,102581.64
2019-04-29T04:35:58.572Z,102576.72
2019-04-29T04:38:27.997Z,102586.98
2019-04-29T04:40:59.607Z,102583.41
2019-04-29T04:43:29.311Z,102583.14
2019-04-29T04:45:59.040Z,102582.52
2019-04-29T04:48:28.625Z,102587.98
2019-04-29T04:50:58.062Z,102583.11
2019-04-29T04:53:27.499Z,102589.82
2019-04-29T04:56:02.098Z,102595.67
2019-04-29T04:58:32.296Z,102591.56
2019-04-29T05:01:01.744Z,102590.47
2019-04-29T05:03:31.232Z,102595.25
2019-04-29T05:06:00.739Z,102593.27
2019-04-29T05:08:30.170Z,102588.80
2019-04-29T05:10:59.810Z,102587.40
2019-04-29T05:13:29.441Z,102591.98
2019-04-29T05:15:58.866Z,102605.23
2019-04-29T05:18:28.286Z,102610.80
2019-04-29T05:20:57.689Z,102605.02
2019-04-29T05:23:27.185Z,102609.30
2019-04-29T05:25:56.594Z,102614.92
2019-04-29T05:28:26.011Z,102610.89
2019-04-29T05:30:55.403Z,102606.19
2019-04-29T05:33:25.005Z,102601.32
2019-04-29T05:36:03.723Z,102611.11
2019-04-29T05:38:40.677Z,102604.44
2019-04-29T05:41:10.345Z,102602.33
2019-04-29T05:43:44.283Z,102606.26
2019-04-29T05:46:30.174Z,102606.24
2019-04-29T05:49:02.343Z,102601.88
2019-04-29T05:51:32.775Z,102604.53
2019-04-29T05:54:09.969Z,102609.13
2019-04-29T05:56:39.551Z,102610.64
2019-04-29T05:59:12.911Z,102604.19
2019-04-29T06:01:42.855Z,102605.12
2019-04-29T06:04:16.439Z,102612.16
2019-04-29T06:06:43.934Z,102619.82
2019-04-29T06:09:16.945Z,102618.34
2019-04-29T06:11:44.635Z,102628.83
2019-04-29T06:14:14.291Z,102637.70
2019-04-29T06:16:43.973Z,102639.53
2019-04-29T06:19:13.429Z,102640.44
2019-04-29T06:21:42.980Z,102639.31
2019-04-29T06:24:12.426Z,102636.75
2019-04-29T06:26:43.761Z,102633.22
2019-04-29T06:29:13.995Z,102626.03
2019-04-29T06:31:43.486Z,102637.13
2019-04-29T06:34:12.997Z,102640.03
2019-04-29T06:36:42.429Z,102640.98
2019-04-29T06:39:13.478Z,102640.17
2019-04-29T06:41:45.088Z,102648.77
2019-04-29T06:44:17.024Z,102647.18
2019-04-29T06:46:50.184Z,102645.19
2019-04-29T06:49:19.145Z,102649.59
2019-04-29T06:51:48.542Z,102656.92
2019-04-29T06:54:17.985Z,102654.24
2019-04-29T06:56:47.393Z,102651.78
2019-04-29T06:59:17.092Z,102657.83
2019-04-29T07:01:48.011Z,102656.77
2019-04-29T07:04:18.174Z,102659.31
2019-04-29T07:06:57.247Z,102657.20
2019-04-29T07:09:18.716Z,102659.41
2019-04-29T07:11:48.122Z,102664.12
2019-04-29T07:14:17.786Z,102655.30
2019-04-29T07:16:47.330Z,102658.88
2019-04-29T07:19:16.797Z,102654.67
2019-04-29T07:21:47.083Z,102652.51
2019-04-29T07:24:20.422Z,102655.88
2019-04-29T07:26:50.025Z,102656.87
2019-04-29T07:29:20.015Z,102655.98
2019-04-29T07:31:49.766Z,102655.70
2019-04-29T07:34:19.199Z,102659.44
2019-04-29T07:36:48.624Z,102652.11
2019-04-29T07:39:18.197Z,102655.53
2019-04-29T07:41:49.489Z,102656.87
2019-04-29T07:44:19.996Z,102661.87
2019-04-29T07:47:02.084Z,102666.78
2019-04-29T07:49:30.004Z,102666.73
2019-04-29T07:51:59.417Z,102667.06
2019-04-29T07:54:29.049Z,102674.25
2019-04-29T07:56:58.458Z,102675.70
2019-04-29T07:59:28.002Z,102674.52
2019-04-29T08:01:59.901Z,102678.31
2019-04-29T08:04:28.649Z,102673.89
2019-04-29T08:06:58.415Z,102671.32
2019-04-29T08:09:28.108Z,102665.86
2019-04-29T08:11:58.676Z,102673.89
2019-04-29T08:14:30.604Z,102675.47
2019-04-29T08:17:00.009Z,102675.55
2019-04-29T08:19:31.562Z,102663.48
2019-04-29T08:22:01.255Z,102668.05
2019-04-29T08:24:30.731Z,102658.59
2019-04-29T08:27:00.365Z,102667.14
2019-04-29T08:29:30.793Z,102675.53
2019-04-29T08:32:02.507Z,102667.22
2019-04-29T08:34:32.109Z,102669.90
2019-04-29T08:37:03.079Z,102671.31
2019-04-29T08:39:32.484Z,102683.84
2019-04-29T08:42:08.719Z,102677.48
2019-04-29T08:44:38.027Z,102682.44
2019-04-29T08:47:18.249Z,102683.59
2019-04-29T08:49:48.546Z,102678.67
2019-04-29T08:52:18.023Z,102678.87
2019-04-29T08:54:50.694Z,102677.68
2019-04-29T08:57:19.467Z,102677.84
2019-04-29T08:59:48.906Z,102682.73
2019-04-29T09:02:33.101Z,102682.94
2019-04-29T09:04:53.667Z,102680.84
2019-04-29T09:07:22.166Z,102677.97
2019-04-29T09:09:56.007Z,102681.56
2019-04-29T09:12:29.022Z,102680.06
2019-04-29T09:14:55.921Z,102689.23
2019-04-29T09:17:25.367Z,102687.46
2019-04-29T09:19:54.847Z,102687.30
2019-04-29T09:22:26.021Z,102686.77
2019-04-29T09:25:16.473Z,102686.46
2019-04-29T09:27:46.483Z,102691.81
2019-04-29T09:30:17.195Z,102693.15
2019-04-29T09:32:46.702Z,102691.13
2019-04-29T09:35:16.352Z,102702.59
2019-04-29T09:37:45.786Z,102697.56
2019-04-29T09:40:17.756Z,102701.64
2019-04-29T09:42:57.020Z,102704.41
2019-04-29T09:45:27.636Z,102695.30
2019-04-29T09:48:02.358Z,102704.13
2019-04-29T09:50:34.297Z,102705.61
2019-04-29T09:53:03.078Z,102702.11
2019-04-29T09:55:35.687Z,102705.86
2019-04-29T09:58:03.841Z,102706.67
2019-04-29T10:00:40.666Z,102706.98
2019-04-29T10:03:27.303Z,102713.03
2019-04-29T10:06:13.517Z,102710.90
2019-04-29T10:08:42.964Z,102706.52
2019-04-29T10:11:12.720Z,102699.72
2019-04-29T10:13:42.164Z,102699.48
2019-04-29T10:16:13.351Z,102694.14
2019-04-29T10:18:47.371Z,102701.22
2019-04-29T10:21:21.249Z,102699.33
2019-04-29T10:23:49.378Z,102699.27
2019-04-29T10:26:18.873Z,102681.88
2019-04-29T10:29:02.350Z,102691.75
2019-04-29T10:31:32.030Z,102688.41
2019-04-29T10:34:01.462Z,102693.54
2019-04-29T10:36:31.077Z,102695.54
2019-04-29T10:39:03.177Z,102702.14
2019-04-29T10:41:36.122Z,102690.90
2019-04-29T10:44:14.547Z,102680.70
2019-04-29T10:46:47.129Z,102683.69
2019-04-29T10:49:18.393Z,102694.48
2019-04-29T10:51:47.950Z,102692.23
2019-04-29T10:54:17.442Z,102685.13
2019-04-29T10:56:47.417Z,102687.12
2019-04-29T10:59:17.057Z,102680.25
2019-04-29T11:02:16.603Z,102680.45
2019-04-29T11:04:48.058Z,102679.42
2019-04-29T11:07:33.498Z,102676.61
2019-04-29T11:10:25.192Z,102666.39
2019-04-29T11:12:55.169Z,102672.43
2019-04-29T11:15:29.384Z,102669.52
2019-04-29T11:17:59.778Z,102669.30
2019-04-29T11:20:29.461Z,102669.27
2019-04-29T11:23:09.187Z,102668.20
2019-04-29T11:25:42.572Z,102668.48
2019-04-29T11:28:16.045Z,102665.08
2019-04-29T11:30:43.473Z,102671.55
2019-04-29T11:33:24.591Z,102670.52
2019-04-29T11:36:03.976Z,102668.30
2019-04-29T11:38:36.059Z,102665.36
2019-04-29T11:41:04.156Z,102660.75
2019-04-29T11:43:34.025Z,102658.27
2019-04-29T11:46:03.864Z,102656.59
2019-04-29T11:48:33.280Z,102648.19
2019-04-29T11:51:13.736Z,102651.38
2019-04-29T11:53:45.054Z,102646.45
2019-04-29T11:56:14.565Z,102650.68
2019-04-29T11:58:46.501Z,102649.30
2019-04-29T12:01:38.820Z,102647.44
2019-04-29T12:04:19.589Z,102645.50
2019-04-29T12:06:51.181Z,102644.91
2019-04-29T12:09:20.748Z,102644.19
2019-04-29T12:11:50.420Z,102642.06
2019-04-29T12:14:24.933Z,102643.56
2019-04-29T12:16:59.522Z,102645.84
2019-04-29T12:19:38.995Z,102645.05
2019-04-29T12:22:09.285Z,102649.23
2019-04-29T12:24:39.710Z,102646.97
2019-04-29T12:27:14.854Z,102654.58
2019-04-29T12:29:42.046Z,102656.05
2019-04-29T12:32:13.250Z,102649.77
2019-04-29T12:34:47.372Z,102646.09
2019-04-29T12:37:18.691Z,102646.05
2019-04-29T12:39:56.067Z,102644.25
2019-04-29T12:42:43.269Z,102642.35
2019-04-29T12:45:19.410Z,102637.56
2019-04-29T12:47:48.805Z,102640.83
2019-04-29T12:50:21.771Z,102635.12
2019-04-29T12:52:49.722Z,102636.19
2019-04-29T12:55:39.300Z,102639.37
2019-04-29T12:57:51.955Z,102647.56
2019-04-29T13:00:23.482Z,102645.52
2019-04-29T13:05:58.250Z,102646.23
2019-04-29T13:08:25.491Z,102634.91
2019-04-29T13:10:56.595Z,102641.61
2019-04-29T13:13:26.091Z,102635.66
2019-04-29T13:16:06.357Z,102629.31
2019-04-29T13:18:55.722Z,102627.02
2019-04-29T13:21:25.406Z,102625.64
2019-04-29T13:24:12.186Z,102614.03
2019-04-29T13:26:28.763Z,102618.56
2019-04-29T13:29:01.115Z,102613.70
2019-04-29T13:31:38.007Z,102612.48
2019-04-29T13:34:14.717Z,102606.13
2019-04-29T13:36:32.739Z,102606.70
2019-04-29T13:39:02.250Z,102607.55
2019-04-29T13:41:31.756Z,102599.34
2019-04-29T13:44:05.792Z,102606.52
2019-04-29T13:46:41.019Z,102605.47
2019-04-29T13:49:21.088Z,102604.88
2019-04-29T13:51:52.288Z,102596.31
2019-04-29T13:54:21.917Z,102598.88
2019-04-29T13:56:57.070Z,102600.66
2019-04-29T13:59:49.047Z,102589.73
2019-04-29T14:02:31.346Z,102593.45
2019-04-29T14:05:00.195Z,102586.82
2019-04-29T14:07:29.444Z,102588.25
2019-04-29T14:09:58.862Z,102577.89
2019-04-29T14:15:00.293Z,102575.43
2019-04-29T14:17:31.735Z,102579.62
2019-04-29T14:20:01.187Z,102572.91
2019-04-29T14:22:30.801Z,102581.94
2019-04-29T14:25:01.730Z,102572.52
2019-04-29T14:27:31.158Z,102577.30
2019-04-29T14:30:02.941Z,102571.45
2019-04-29T14:32:34.797Z,102568.91
2019-04-29T14:35:07.187Z,102564.09
2019-04-29T14:37:35.751Z,102567.86
2019-04-29T14:40:09.233Z,102562.75
2019-04-29T14:42:58.082Z,102562.31
2019-04-29T14:45:43.603Z,102558.72
2019-04-29T14:48:14.757Z,102564.44
2019-04-29T14:50:49.560Z,102563.62
2019-04-29T14:53:19.507Z,102569.64
2019-04-29T14:55:48.360Z,102569.20
2019-04-29T14:58:19.410Z,102572.87
2019-04-29T15:00:51.113Z,102563.56
2019-04-29T15:03:22.454Z,102567.38
2019-04-29T15:05:52.000Z,102561.58
2019-04-29T15:08:23.262Z,102556.16
2019-04-29T15:10:54.068Z,102563.73
2019-04-29T15:13:24.808Z,102565.63
2019-04-29T15:16:09.628Z,102566.39
2019-04-29T15:18:49.027Z,102566.26
2019-04-29T15:21:33.286Z,102567.86
2019-04-29T15:24:03.013Z,102561.95
2019-04-29T15:26:32.649Z,102563.95
2019-04-29T15:29:02.163Z,102560.95
2019-04-29T15:31:31.622Z,102565.60
2019-04-29T15:34:01.129Z,102560.09
2019-04-29T15:36:34.537Z,102561.36
2019-04-29T15:39:09.848Z,102558.48
2019-04-29T15:41:33.546Z,102563.62
2019-04-29T15:44:07.427Z,102564.56
2019-04-29T15:46:46.116Z,102560.91
2019-04-29T15:49:05.868Z,102560.57
2019-04-29T15:51:35.281Z,102561.56
2019-04-29T15:54:09.354Z,102563.38
2019-04-29T15:56:38.630Z,102557.19
2019-04-29T15:59:08.962Z,102561.13
2019-04-29T16:01:41.345Z,102563.56
2019-04-29T16:04:12.666Z,102554.69
2019-04-29T16:06:45.254Z,102548.87
2019-04-29T16:09:30.456Z,102546.59
2019-04-29T16:12:17.700Z,102548.27
2019-04-29T16:14:49.179Z,102550.25
2019-04-29T16:17:20.608Z,102550.02
2019-04-29T16:19:49.611Z,102551.34
2019-04-29T16:22:20.026Z,102555.55
2019-04-29T16:24:49.814Z,102551.41
2019-04-29T16:27:19.270Z,102550.58
2019-04-29T16:29:51.598Z,102546.89
2019-04-29T16:32:33.584Z,102548.34
2019-04-29T16:35:03.110Z,102552.70
2019-04-29T16:37:33.379Z,102554.40
2019-04-29T16:40:02.946Z,102563.09
2019-04-29T16:42:49.083Z,102554.27
2019-04-29T16:45:19.176Z,102551.67
2019-04-29T16:47:48.800Z,102550.08
2019-04-29T16:50:18.216Z,102542.78
2019-04-29T16:52:47.632Z,102544.83
2019-04-29T16:55:17.217Z,102540.75
2019-04-29T16:57:46.649Z,102539.70
2019-04-29T17:00:18.060Z,102543.44
2019-04-29T17:02:47.617Z,102545.50
2019-04-29T17:05:17.249Z,102540.52
2019-04-29T17:07:46.756Z,102550.06
2019-04-29T17:10:24.883Z,102554.05
2019-04-29T17:12:54.447Z,102549.38
2019-04-29T17:15:26.068Z,102553.59
2019-04-29T17:17:55.755Z,102548.56
2019-04-29T17:20:25.648Z,102551.02
2019-04-29T17:22:55.131Z,102551.16
2019-04-29T17:25:24.745Z,102549.21
2019-04-29T17:27:58.516Z,102546.24
2019-04-29T17:30:46.693Z,102551.23
2019-04-29T17:33:26.223Z,102552.04
2019-04-29T17:35:47.790Z,102541.94
2019-04-29T17:38:17.815Z,102547.92
2019-04-29T17:40:51.112Z,102542.36
2019-04-29T17:43:21.406Z,102542.03
2019-04-29T17:46:08.840Z,102546.11
2019-04-29T17:48:39.976Z,102539.40
2019-04-29T17:51:11.325Z,102543.73
2019-04-29T17:53:46.025Z,102543.03
2019-04-29T17:56:17.266Z,102543.55
2019-04-29T17:58:53.869Z,102539.23
2019-04-29T18:01:43.303Z,102537.02
2019-04-29T18:04:22.338Z,102541.53
2019-04-29T18:07:08.295Z,102542.70
2019-04-29T18:09:29.683Z,102544.34
2019-04-29T18:12:00.196Z,102545.90
2019-04-29T18:14:36.532Z,102546.16
2019-04-29T18:17:00.920Z,102543.52
2019-04-29T18:19:34.856Z,102546.12
2019-04-29T18:22:07.863Z,102550.80
2019-04-29T18:24:55.465Z,102559.16
2019-04-29T18:27:29.284Z,102545.78
2019-04-29T18:29:58.815Z,102552.62
2019-04-29T18:32:35.596Z,102554.39
2019-04-29T18:35:01.842Z,102556.98
2019-04-29T18:37:36.951Z,102566.77
2019-04-29T18:40:03.579Z,102558.58
2019-04-29T18:42:33.129Z,102563.59
2019-04-29T18:45:05.006Z,102564.38
2019-04-29T18:47:36.434Z,102560.45
2019-04-29T18:50:08.764Z,102565.92
2019-04-29T18:52:38.191Z,102558.97
2019-04-29T18:55:09.134Z,102562.20
2019-04-29T18:57:38.556Z,102564.67
2019-04-29T19:00:11.995Z,102565.34
2019-04-29T19:02:45.366Z,102560.09
2019-04-29T19:05:18.601Z,102561.43
2019-04-29T19:07:55.140Z,102561.73
2019-04-29T19:10:32.000Z,102566.52
2019-04-29T19:12:59.761Z,102567.31
2019-04-29T19:15:25.614Z,102562.51
2019-04-29T19:18:01.339Z,102567.70
2019-04-29T19:20:26.528Z,102568.14
2019-04-29T19:23:05.884Z,102568.73
2019-04-29T19:25:27.287Z,102569.14
2019-04-29T19:27:56.772Z,102564.67
2019-04-29T19:30:29.097Z,102564.44
2019-04-29T19:33:00.346Z,102567.45
2019-04-29T19:35:29.505Z,102573.45
2019-04-29T19:38:00.025Z,102576.34
2019-04-29T19:40:30.502Z,102577.63
2019-04-29T19:43:00.667Z,102573.33
2019-04-29T19:45:30.168Z,102577.02
2019-04-29T19:48:00.408Z,102581.83
2019-04-29T19:50:29.877Z,102585.09
2019-04-29T19:53:00.771Z,102580.53
2019-04-29T19:55:33.142Z,102585.19
2019-04-29T19:58:02.208Z,102579.13
2019-04-29T20:00:32.432Z,102585.30
2019-04-29T20:03:02.741Z,102588.99
2019-04-29T20:05:39.691Z,102587.10
2019-04-29T20:08:08.529Z,102587.49
2019-04-29T20:10:46.312Z,102586.10
2019-04-29T20:13:11.035Z,102592.30
2019-04-29T20:15:51.647Z,102590.29
2019-04-29T20:18:41.984Z,102581.43
2019-04-29T20:21:25.082Z,102587.02
2019-04-29T20:23:53.247Z,102583.01
2019-04-29T20:26:28.970Z,102584.71
2019-04-29T20:28:55.680Z,102580.70
2019-04-29T20:31:26.229Z,102585.01
2019-04-29T20:33:58.604Z,102578.42
2019-04-29T20:36:38.361Z,102580.91
2019-04-29T20:39:00.061Z,102583.02
2019-04-29T20:41:40.602Z,102586.93
2019-04-29T20:44:05.767Z,102583.42
2019-04-29T20:46:44.660Z,102586.50
2019-04-29T20:49:05.716Z,102592.31
2019-04-29T20:51:48.798Z,102588.32
2019-04-29T20:54:15.850Z,102590.20
2019-04-29T20:56:41.805Z,102592.21
2019-04-29T20:59:12.986Z,102586.73
2019-04-29T21:01:47.160Z,102580.81
2019-04-29T21:04:30.594Z,102582.73
2019-04-29T21:06:59.835Z,102577.11
2019-04-29T21:09:22.061Z,102578.22
2019-04-29T21:12:09.986Z,102577.74
2019-04-29T21:14:46.815Z,102584.71
2019-04-29T21:17:27.967Z,102583.51
2019-04-29T21:19:49.172Z,102584.59
2019-04-29T21:22:23.465Z,102581.01
2019-04-29T21:24:53.842Z,102579.41
2019-04-29T21:27:22.483Z,102580.62
2019-04-29T21:29:54.032Z,102574.52
2019-04-29T21:32:25.594Z,102568.03
2019-04-29T21:34:56.387Z,102568.64
2019-04-29T21:37:30.400Z,102572.14
2019-04-29T21:40:01.485Z,102571.63
2019-04-29T21:42:35.285Z,102573.94
2019-04-29T21:45:08.763Z,102565.73
2019-04-29T21:47:44.822Z,102566.34
2019-04-29T21:50:10.452Z,102574.74
2019-04-29T21:52:39.857Z,102576.22
2019-04-29T21:55:09.759Z,102581.41
2019-04-29T21:57:39.158Z,102571.75
2019-04-29T22:00:11.703Z,102583.02
2019-04-29T22:02:45.506Z,102578.74
2019-04-29T22:05:14.754Z,102578.84
2019-04-29T22:07:47.385Z,102576.66
2019-04-29T22:10:19.821Z,102583.25
2019-04-29T22:12:50.849Z,102579.36
2019-04-29T22:15:30.696Z,102583.74
2019-04-29T22:17:58.485Z,102583.31
2019-04-29T22:20:26.536Z,102571.75
2019-04-29T22:22:56.127Z,102578.23
2019-04-29T22:25:27.099Z,102581.83
2019-04-29T22:27:57.106Z,102577.84
2019-04-29T22:30:26.676Z,102579.53
2019-04-29T22:32:58.773Z,102577.47
2019-04-29T22:35:28.096Z,102585.73
2019-04-29T22:37:59.308Z,102581.03
2019-04-29T22:40:28.743Z,102579.44
2019-04-29T22:43:17.825Z,102578.53
2019-04-29T22:45:47.334Z,102589.71
2019-04-29T22:48:19.540Z,102584.53
2019-04-29T22:50:47.885Z,102587.52
2019-04-29T22:53:17.336Z,102588.33
2019-04-29T22:55:46.782Z,102592.50
2019-04-29T22:58:16.217Z,102587.42
2019-04-29T23:00:45.676Z,102578.44
2019-04-29T23:03:15.183Z,102581.03
2019-04-29T23:05:46.160Z,102577.66
2019-04-29T23:08:15.763Z,102571.09
2019-04-29T23:10:45.641Z,102571.48
2019-04-29T23:13:15.353Z,102566.88
2019-04-29T23:15:45.770Z,102567.59
2019-04-29T23:18:24.744Z,102569.47
2019-04-29T23:21:04.006Z,102564.18
2019-04-29T23:23:40.477Z,102566.29
2019-04-29T23:26:10.018Z,102577.14
2019-04-29T23:28:40.990Z,102576.56
2019-04-29T23:31:10.395Z,102571.96
2019-04-29T23:33:40.129Z,102562.17
2019-04-29T23:36:13.648Z,102568.17
2019-04-29T23:38:42.751Z,102557.41
2019-04-29T23:41:12.529Z,102562.27
2019-04-29T23:43:41.995Z,102568.36
2019-04-29T23:46:11.683Z,102565.28
2019-04-29T23:48:41.093Z,102566.19
2019-04-29T23:51:10.667Z,102569.07
2019-04-29T23:53:40.144Z,102563.98
2019-04-29T23:56:09.953Z,102566.97
2019-04-29T23:58:42.560Z,102562.59
